»·PEaware :: N850VJ KVCV-KSNA

N850VJ :: KVCV-KSNA

FLIGHT INFORMATION

Flight Status: Arrived
Operator: Privately registered:
United States
More flights under this callsign
Pilot: Anonymous 13363 (13363)
Aircraft: Unknown
(TBM9)
More flights by this aircraft type
Origin: KVCV Socal Logistics
United States
Destination: KSNA John Wayne-Orange Co
United States
More flights between these airports :: More routes between these airports
Route: +PMD V201 BERRI
File this flight plan on PilotEdge
Remarks: FIFE TRREEEEEE
Altitude:
(Current/Filed)
14,000ft
Speed:
(Current/Filed)
270kts
Departed: 21-Jan-18 02:46 PM
Arrived: 21-Jan-18 03:21 PM
Distance/Time
Traveled:
61nm/0:34
Distance/Time
To Go:
Arrived

Flight Plot

Page will automatically refresh every two minutes.

Flight plan parsing failed; only flown route is shown


Map Options




Map Legend


Flown Route
Filed Route
Departure Airport
Arrival Airport
Navaid (VOR, NDB)
Fix

Horizontal Profiles

Position Reports

Time Latitude Longitude Heading Altitude Ground
Speed
21-Jan-18 14:26 34.600063 -117.365128 188 2842ft 0kts
21-Jan-18 14:27 34.600063 -117.365128 188 2842ft 0kts
21-Jan-18 14:28 34.600063 -117.365128 188 2842ft 0kts
21-Jan-18 14:29 34.600063 -117.365128 188 2842ft 0kts
21-Jan-18 14:30 34.600063 -117.365128 188 2842ft 0kts
21-Jan-18 14:31 34.600063 -117.365128 188 2842ft 0kts
21-Jan-18 14:32 34.600063 -117.365128 188 2842ft 0kts
21-Jan-18 14:33 34.600063 -117.365128 188 2842ft 0kts
21-Jan-18 14:34 34.600063 -117.365128 188 2842ft 0kts
21-Jan-18 14:35 34.600063 -117.365128 188 2842ft 0kts
21-Jan-18 14:36 34.600063 -117.365128 188 2842ft 0kts
21-Jan-18 14:37 34.600063 -117.365128 188 2842ft 0kts
21-Jan-18 14:38 34.600063 -117.365128 188 2842ft 0kts
21-Jan-18 14:39 34.600063 -117.365128 188 2842ft 0kts
21-Jan-18 14:40 34.600063 -117.365128 188 2842ft 0kts
21-Jan-18 14:41 34.600063 -117.365128 188 2842ft 0kts
21-Jan-18 14:42 34.600063 -117.365128 188 2842ft 0kts
21-Jan-18 14:43 34.600063 -117.365128 188 2842ft 0kts
21-Jan-18 14:44 34.600063 -117.365128 188 2842ft 0kts
21-Jan-18 14:45 34.600063 -117.365128 188 2842ft 0kts
21-Jan-18 14:46 34.600063 -117.365128 188 2842ft 0kts
21-Jan-18 14:47 34.600063 -117.365128 187 2842ft 0kts
21-Jan-18 14:48 34.599597 -117.366126 307 2840ft 9kts
21-Jan-18 14:49 34.599724 -117.366265 324 2840ft 0kts
21-Jan-18 14:50 34.599855 -117.366366 327 2839ft 2kts
21-Jan-18 14:51 34.600190 -117.366961 218 2837ft 1kts
21-Jan-18 14:52 34.584877 -117.386792 246 3788ft 128kts
21-Jan-18 14:53 34.579083 -117.431650 262 5910ft 138kts
21-Jan-18 14:54 34.573102 -117.482237 261 7949ft 151kts
21-Jan-18 14:55 34.573849 -117.532973 277 10115ft 156kts
21-Jan-18 14:56 34.579117 -117.584107 283 12394ft 145kts
21-Jan-18 14:57 34.585421 -117.639900 281 13018ft 207kts
21-Jan-18 14:58 34.592000 -117.699265 280 12994ft 236kts
21-Jan-18 14:59 34.600945 -117.780936 280 12983ft 251kts
21-Jan-18 15:00 34.610137 -117.865286 280 12980ft 252kts
21-Jan-18 15:01 34.619256 -117.949796 280 12980ft 252kts
21-Jan-18 15:02 34.628229 -118.033570 280 13000ft 251kts
21-Jan-18 15:03 34.581777 -118.088723 208 13013ft 278kts
21-Jan-18 15:04 34.511298 -118.126493 208 13024ft 278kts
21-Jan-18 15:05 34.440412 -118.164335 208 13025ft 279kts
21-Jan-18 15:06 34.369778 -118.201919 207 13026ft 279kts
21-Jan-18 15:07 34.298645 -118.239631 208 12971ft 280kts
21-Jan-18 15:08 34.228040 -118.276974 208 12971ft 280kts
21-Jan-18 15:09 34.153739 -118.266244 156 12978ft 294kts
21-Jan-18 15:10 34.080869 -118.224569 156 12967ft 294kts
21-Jan-18 15:11 34.011336 -118.184968 156 12972ft 294kts
21-Jan-18 15:12 33.938609 -118.179674 191 12892ft 265kts
21-Jan-18 15:13 33.872333 -118.190734 191 11947ft 261kts
21-Jan-18 15:14 33.800936 -118.203564 191 10628ft 259kts
21-Jan-18 15:15 33.730979 -118.216925 191 9440ft 252kts
21-Jan-18 15:16 33.663007 -118.230126 191 8181ft 244kts
21-Jan-18 15:17 33.613201 -118.203702 86 6964ft 234kts
21-Jan-18 15:18 33.628018 -118.129235 43 5413ft 235kts
21-Jan-18 15:19 33.673346 -118.081057 41 4573ft 216kts
21-Jan-18 15:20 33.713650 -118.026408 61 3704ft 225kts
21-Jan-18 15:21 33.743162 -117.960797 70 3257ft 224kts
21-Jan-18 15:22 33.761561 -117.900879 70 2579ft 232kts
21-Jan-18 15:23 33.760522 -117.839059 156 2238ft 152kts
21-Jan-18 15:24 33.724921 -117.845595 204 1435ft 116kts
21-Jan-18 15:25 33.699295 -117.854249 207 560ft 88kts
21-Jan-18 15:26 33.679470 -117.866419 208 62ft 74kts
21-Jan-18 15:27 33.669072 -117.871579 128 59ft 0kts
21-Jan-18 15:28 33.668887 -117.871384 151 59ft 4kts
21-Jan-18 15:29 33.667440 -117.872579 202 59ft 8kts
21-Jan-18 15:30 33.666908 -117.872521 224 59ft 0kts
21-Jan-18 15:31 33.666908 -117.872521 224 59ft 0kts
21-Jan-18 15:32 33.666908 -117.872521 224 59ft 0kts
21-Jan-18 15:33 33.666908 -117.872521 224 59ft 0kts
21-Jan-18 15:34 33.666908 -117.872521 224 59ft 0kts
21-Jan-18 15:35 33.666908 -117.872521 224 59ft 0kts
21-Jan-18 15:36 33.666908 -117.872521 224 59ft 0kts
21-Jan-18 15:37 33.666908 -117.872521 224 59ft 0kts
21-Jan-18 15:38 33.666908 -117.872521 224 59ft 0kts
21-Jan-18 15:39 33.666908 -117.872521 224 59ft 0kts
21-Jan-18 15:40 33.666908 -117.872521 224 59ft 0kts
21-Jan-18 15:41 33.666908 -117.872521 224 59ft 0kts

Navigation Log

Ident Type
Flight plan parsing failed, navigation log unavailable